AirNav   Advertisement
 
 458 users online  

56D Wyandot County Airport
Upper Sandusky, Ohio, USA

GOING TO UPPER SANDUSKY?


FAA INFORMATION EFFECTIVE 14 SEPTEMBER 2017

Location

FAA Identifier: 56D
Lat/Long: 40-53-00.1269N / 083-18-52.3136W
40-53.002115N / 083-18.871893W
40.8833686 / -83.3145316
(estimated)
Elevation: 829.8 ft. / 253 m (estimated)
Variation: 05W (1985)
From city: 4 miles NW of UPPER SANDUSKY, OH
Time zone: UTC -4 (UTC -5 during Standard Time)
Zip code: 43351

Airport Operations

Airport use: Open to the public
Activation date: 09/1955
Control tower: no
ARTCC: CLEVELAND CENTER
FSS: CLEVELAND FLIGHT SERVICE STATION
NOTAMs facility: CLE (NOTAM-D service available)
Attendance: UNATNDD
Wind indicator: lighted
Segmented circle: no
Lights: ACTVT MIRL RY 18/36 - 123.050.
Beacon: white-green (lighted land airport)
Operates sunset to sunrise.

Airport Communications

CTAF: 122.9
MANSFIELD APPROACH: 124.2
MANSFIELD DEPARTURE: 124.2
WX AWOS-3 at 16G (13 nm N): 127.175 (419-443-1043)
WX AWOS-3 at 17G (17 nm E): 126.625 (419-562-0297)
WX ASOS at FDY (18 nm NW): 132.85 (419-427-8524)
WX AWOS-3 at FZI (19 nm N): 124.625 (419-436-0053)
WX ASOS at MNN (20 nm SE): 119.975 (740-383-3400)
  • APCH/DEP SERVICE PROVIDED BY CLEVELAND ARTCC ON FREQS 135.1/291.725 (FINDLAY RCAG) WHEN MANSFIELD APCH CTL CLSD.

Nearby radio navigation aids

VOR radial/distance  VOR name  Freq  Var
BUDr330/(19.6)BUCKEYE VOR109.8005W
FBCr104/20.5FLAG CITY VORTAC108.2002W
MFDr275/32.8MANSFIELD VORTAC108.8003W
VWVr159/37.1WATERVILLE VOR/DME113.1002W

 
NDB name  Hdg/Dist  Freq  Var  ID
TIFFIN205/13.526905WTII - .. ..
BENTON RIDGE122/18.133405WBNR -... -. .-.
RUSHSYLVANIA037/30.132605WRUV .-. ..- ...-

Airport Services

Parking: tiedowns

Runway Information

Runway 18/36

Dimensions: 3997 x 75 ft. / 1218 x 23 m
Surface: asphalt/aggregate friction seal coat, in good condition
Weight bearing capacity: 
Single wheel: 12.5
Runway edge lights: medium intensity
RUNWAY 18  RUNWAY 36
Latitude: 40-53.331203N40-52.673025N
Longitude: 083-18.869807W083-18.873980W
Elevation: 824.0 ft.828.4 ft.
Gradient: 0.1%0.1%
Traffic pattern: leftright
Runway heading: 185 magnetic, 180 true005 magnetic, 000 true
Markings: basicbasic
Runway end identifier lights: no
Touchdown point: yes, no lightsyes, no lights
Obstructions: 79 ft. trees, 1076 ft. from runway, 207 ft. left of centerline, 11:1 slope to clear21 ft. pline, 620 ft. from runway, 20:1 slope to clear

Airport Ownership and Management from official FAA records

Ownership: Publicly-owned
Owner: COUNTY AIRPORT AUTHORITY
PO BOX 276
UPPER SANDUSKY, OH 43351
Manager: LARRY FRUTH
10841 CR 42
UPPER SANDUSKY, OH 43351
Phone 419-294-3814
ADDNL PHONE - MGR LARRY FRUTH 419-294-3642, MGR CELL 419-294-8710

Airport Operational Statistics

Aircraft based on the field: 7
Single engine airplanes: 4
Ultralights: 3
    
Aircraft operations: avg 20/day *
69% local general aviation
24% transient general aviation
7% air taxi
<1% military
* for 12-month period ending 22 October 2014

Additional Remarks

APCH/DEP SVC PRVVD BY CLEVELAND ARTCC 135.1./291.725 OR CALL 440-774-0222, WHEN MANSFEILD APCH (MFD) CLSD.

Instrument Procedures

NOTE: All procedures below are presented as PDF files. If you need a reader for these files, you should download the free Adobe Reader.

NOT FOR NAVIGATION. Please procure official charts for flight.
FAA instrument procedures published for use between 14 September 2017 at 0901Z and 12 October 2017 at 0900Z.

 
IAPs - Instrument Approach Procedures
VOR-A   download (193KB)
NOTE: Special Take-Off Minimums/Departure Procedures apply   download (164KB)

Other nearby airports with instrument procedures:

16G - Seneca County Airport (13 nm N)
17G - Port Bucyrus-Crawford County Airport (17 nm E)
KFDY - Findlay Airport (18 nm NW)
KFZI - Fostoria Metropolitan Airport (19 nm N)
KMNN - Marion Municipal Airport (20 nm SE)
 
Loc | Ops | Rwys | IFR | FBO | Links
Com | Nav | Svcs | Stats | Notes


 
Area around 56D (Wyandot County Airport)
 
Road maps at: MapQuest Bing Google
 
Aerial photo
WARNING: Photo may not be current or correct
Aerial photo of 56D (Wyandot County Airport)
Do you have a better or more recent aerial photo of Wyandot County Airport that you would like to share? If so, please send us your photo.

 
Sectional chart

 
Airport distance calculator
Flying to Wyandot County Airport? Find the distance to fly.

From to 56D

Sunrise and sunset
Times for 23-Sep-2017
 Local
(UTC-4)
 Zulu
(UTC)
Morning civil twilight06:5510:55
Sunrise07:2311:23
Sunset19:2923:29
Evening civil twilight19:5623:56

Current date and time
Zulu (UTC)  23-Sep-2017 05:37:14
Local (UTC-4)  23-Sep-2017 01:37:14
 
METAR
KFDY 
18nm NW 
230453Z AUTO 00000KT 10SM CLR 21/16 A3008 RMK AO2 SLP174 T02110161 403280189 TSNO
KMNN 
20nm SE 
230453Z AUTO 00000KT 9SM CLR 18/16 A3010 RMK AO2 SLP187 T01830156 403330178
KOWX 
32nm W 
230515Z AUTO 08003KT 7SM CLR 17/17 A3009 RMK AO1
KAOH 
34nm W 
230453Z AUTO 12005KT 10SM CLR 22/18 A3009 RMK AO2 SLP180 T02170183 403280172
TAF
KFDY 
18nm NW 
221736Z 2218/2318 07005KT P6SM SCT250 FM230900 00000KT 5SM BR SCT250 FM231400 09005KT P6SM SCT250
NOTAMs
Click for the latest NOTAMs
NOTAMs are issued by the DoD/FAA and will open in a separate window not controlled by AirNav.

 

 
 

Would you like to see your business listed on this page?

 If your business provides an interesting product or service to pilots, flight crews, aircraft, or users of the Wyandot County Airport, you should consider listing it here.  To start the listing process, click on the button below
 
Add a business
 

Other Pages about Wyandot County Airport

Update a link
 
Copyright © AirNav, LLC. All rights reserved. Privacy Policy  Contact